Commit Graph

  • cce27d73fd Fixed ifc window bugs Andrej730 2023-01-27 17:44:52 +05:00
  • 87515f3839 Added creating window to Shift+A menu Andrej730 2023-01-27 16:30:35 +05:00
  • 24f3918769 Fix #2705. Annotation draw error when splines are outside the zoom level of the screen. Dion Moult 2023-01-27 14:32:41 +11:00
  • f7af38c863 Fix #2712. blenderbim-230127 Dion Moult 2023-01-27 12:09:17 +11:00
  • 6c2a4711da Fix bug where annotations were assumed to only be part of one drawing group Dion Moult 2023-01-27 08:38:00 +11:00
  • 41fdd77bfa Fix #2579. Bug where measurements were considered to be greasepencil strokes when drawing walls. Dion Moult 2023-01-27 08:32:25 +11:00
  • 9185a51234 Fix #2363. Bug when adding unbuilt schedule to sheet. Dion Moult 2023-01-27 08:22:10 +11:00
  • c5ae86d10b fix bug on Extend IfcBeam: https://community.osarch.org/discussion/1327/blenderbim-bug-on-extend-ifcbeam Ryan Schultz 2023-01-26 08:31:04 -06:00
  • 74477d0051 Window modifier - removed hardcoded mm units Andrej730 2023-01-26 18:22:35 +05:00
  • cee0ff2074 BIM tool UI black format Andrej730 2023-01-26 17:14:03 +05:00
  • 85bba9d5f8 Added default blender selection behaviour to BIM Tool Andrej730 2023-01-24 19:32:22 +05:00
  • 8e696cbf02 Added description to some operators with hotkeys Andrej730 2023-01-24 17:30:50 +05:00
  • c7d1f5efc0 Changed split hotkey to Shift-K (#2568) Andrej730 2023-01-24 17:29:56 +05:00
  • 68bbb4d7a1 Solving interface issues from #2568 Andrej730 2023-01-24 16:36:42 +05:00
  • b1dd20fef7 Fixed window units in bmesh (#2724) Andrej730 2023-01-26 14:42:35 +05:00
  • a701624d7b #2720 add gltf to CD yml Thomas Krijnen 2023-01-26 09:07:53 +01:00
  • f912be7875 #2720 add gltf to CD yml Thomas Krijnen 2023-01-26 08:59:38 +01:00
  • 04bdb12e79 Window Modifier - added mullions/transoms, removed relative panel dimensions Andrej730 2023-01-25 16:41:00 +05:00
  • d69f6c02b6 See #1636. Fix drawing caching when new voids are added or parametric objects updated. Dion Moult 2023-01-26 12:14:45 +11:00
  • 95c3a57a4d Fix #2722. blenderbim-230126 Dion Moult 2023-01-26 11:11:04 +11:00
  • 0b6d321d83 Fix #2721. Dion Moult 2023-01-26 11:09:51 +11:00
  • e0fd3fd90e See #1636. Fix bug where moving an opening didn't update the drawing cache for it's element. Dion Moult 2023-01-26 09:18:08 +11:00
  • 7686e35858 Fix #2697. Dion Moult 2023-01-25 20:52:43 +11:00
  • 8eeb8804d4 Handle corrupt geometry caches (e.g. due to crash) by creating a fresh cache. Dion Moult 2023-01-25 17:56:05 +11:00
  • cb9a7cf5be Fix #2712. Handle deletion of rel services buildings. Dion Moult 2023-01-25 17:42:27 +11:00
  • 54cec30a60 Window modifier - fixed bug in bmesh Andrej730 2023-01-25 11:02:25 +05:00
  • 9f0ad9be3c Black formatting window modifier Andrej730 2023-01-25 10:49:03 +05:00
  • a6271d0936 IFC Window modifier Andrej730 2023-01-11 14:33:56 +05:00
  • cf6acd5dd6 ShapeBuilder - added 3d rectangles and polylines support Andrej730 2023-01-23 18:00:03 +05:00
  • f8468e66e6 Fixed omitted ifc operators returns Andrej730 2023-01-11 18:36:28 +05:00
  • d0cf5f9d0c Fixed ShapeBuilder bug for mirroring IfcExtrudedAreaSolid Andrej730 2023-01-10 15:06:46 +05:00
  • 2c123fdbfb Bump IfcOpenShell - mainly to fix geometry caching bug Dion Moult 2023-01-25 16:55:05 +11:00
  • 49b5bbd585 Fix PyPI IfcOpenShell action Dion Moult 2023-01-25 14:08:59 +11:00
  • bf3063ec00 You can now convert ArchiCAD spaces across multiple stories to Revit rooms blenderbim-230125 Dion Moult 2023-01-25 13:55:38 +11:00
  • 1e2ac1fe24 Fix IFC Array bug Sigma Dimensions 2023-01-23 22:51:41 +01:00
  • 9d7145746f Drawing feature tests blenderbim-230123 Sigma Dimensions 2023-01-23 22:06:29 +01:00
  • 6e7fee5bc8 BBIM: Fix drawing elevation view bug Sigma Dimensions 2023-01-21 12:00:07 +01:00
  • 9638ae3e77 BBIM: Fix bug error when trying to open a drawing rather than a sheet/schedule Sigma Dimensions 2023-01-21 01:26:26 +01:00
  • 69cee56b7c BBIM: fix profile joiner for beams & other products blenderbim-230121 Sigma Dimensions 2023-01-21 01:18:06 +01:00
  • 2257942676 BBIM: When adding doors to a wall, maintain the wall as the active object. This allows adding multiple doors smoothly. Sigma Dimensions 2023-01-21 00:51:46 +01:00
  • a5ca7c540f remove useless lines and run quality check black Sigma Dimensions 2023-01-20 21:39:24 +01:00
  • c9b0a7c3de Attempt to fix selector bug where retrieving material values gets caught in exception Sigma Dimensions 2023-01-20 21:23:40 +01:00
  • 358d19c883 BBIM: fix bug where task inputs could also be "USERDEFINED" or "NOTDEFINED" Sigma Dimensions 2023-01-20 13:51:08 +01:00
  • e624d56516 BBIM: improve task bar visual creation Sigma Dimensions 2023-01-20 13:48:14 +01:00
  • 78a6532615 ifcopenshell: Improve purging for remove_task usecase Sigma Dimensions 2023-01-20 12:58:11 +01:00
  • 44bb4ac74d BBIM: enable adding task bars visual when creating an animation Sigma Dimensions 2023-01-20 11:34:38 +01:00
  • f782d784af BBIM: improve task object selection Sigma Dimensions 2023-01-20 11:31:06 +01:00
  • caf9034839 BBIM: refactor gantt generation operator Sigma Dimensions 2023-01-20 11:26:32 +01:00
  • 893fd50b85 BBIM: Attempt to fix 3D viewport decoration issue blenderbim-230120 Sigma Dimensions 2023-01-20 10:12:42 +01:00
  • 7a3e53a9f8 update qto core and qto tools: - when calculating quantities of an object, assign base qto to object if none exists. - optimise core and tool functions so it's faster for many selected objects blenderbim-230119 Sigma Dimensions 2023-01-19 21:05:47 +01:00
  • 07ee62eb91 Add support for editing material set item psets. blenderbim-230118 Dion Moult 2023-01-18 16:40:15 +11:00
  • b41878e960 #2697 take only a single inverse at a time Thomas Krijnen 2023-01-16 21:29:59 +01:00
  • d9f1cb5525 reassign_class now preserves original STEP ID and GLOBALID - #2701 Vukas Pajic 2023-01-16 13:34:57 +01:00
  • 8110951987 Now support custom attributes in IfcSelector #2649 Vukas Pajic 2023-01-16 08:58:14 +01:00
  • 6b63b5aae7 selector now correctly applies comparison operator. #2643 blenderbim-230116 Vukas Pajic 2023-01-16 08:08:26 +01:00
  • e814736e68 Update README.md Martyna Jakubowska 2023-01-10 13:01:50 +01:00
  • 802e3a0ea1 #2688 fix non-planar face triangulation Thomas Krijnen 2023-01-15 14:42:14 +01:00
  • 4e8a962f60 Minor fix blenderbim-230115 Massimo Fabbro 2023-01-14 21:43:12 +01:00
  • e20d4c93b7 Delete unuseful qto tool function Massimo Fabbro 2023-01-08 20:23:37 +01:00
  • 1be76c8aaa Fix little bug Massimo Fabbro 2023-01-14 22:42:57 +01:00
  • a4566797fe fix: ifcclash bcfxml export blenderbim-230114 Andrea Ghensi 2023-01-14 15:49:23 +01:00
  • 4ee3458ff9 Run linux/osx builds with fewer cpus Kristoffer Andersen 2023-01-14 17:23:44 +01:00
  • f86de533f8 BBIM: Feature to select an annotation's assigned object Sigma Dimensions 2023-01-13 16:13:57 +01:00
  • 693831dca3 BBIM: replace "guess_all_quantities" operator in the UI v0.7.0a7 Sigma Dimensions 2023-01-13 14:59:31 +01:00
  • 7500919b5d Set to fixed daily release Kristoffer Andersen 2023-01-13 14:59:06 +01:00
  • e37b6fa8a2 BBIM: Replace "GuessAllQuantities" with "CalculateQuantities in QTO subpanel, and also re-calculate for all selected objects Sigma Dimensions 2023-01-13 14:57:36 +01:00
  • 9de9645229 #2665 increase halfspace tolerance comparison Thomas Krijnen 2023-01-13 13:56:38 +01:00
  • 373d664251 #2361 Thomas Krijnen 2023-01-13 12:50:18 +01:00
  • 6ab912a049 Fix invalid IFC context dimensionality Dion Moult 2023-01-13 22:35:15 +11:00
  • 9b9c900340 You can now manage material set psets from the UI Dion Moult 2023-01-13 22:34:49 +11:00
  • a1ac820050 #2685 Recompile rules blenderbim-230113 Thomas Krijnen 2023-01-13 12:12:26 +01:00
  • e812a886dc #2685 also implement __mul__ on express_set Thomas Krijnen 2023-01-13 11:12:26 +01:00
  • b759e22875 #2685 assoc material test cases Thomas Krijnen 2023-01-13 11:11:00 +01:00
  • 93e0babe5a #1785 disable hdf5 brep softlinking Thomas Krijnen 2023-01-13 12:10:52 +01:00
  • 7d021fb7a4 reduce number of parallel tasks Kristoffer Andersen 2023-01-13 08:03:16 +01:00
  • b2cb8ffd8f Update ci-ifcopenshell-conda-daily.yml Kristoffer Andersen 2023-01-13 07:56:24 +01:00
  • 25a5651e50 Update ci-ifcopenshell-conda-daily.yml Kristoffer Andersen 2023-01-13 07:53:53 +01:00
  • b301eb6520 Update boolean_utils.cpp Thomas Krijnen 2023-01-12 13:07:40 +01:00
  • 9f90d37401 Delete .travis.yml Thomas Krijnen 2023-01-12 12:41:28 +01:00
  • ba7741fef5 Fix #2285. You can now get all the elements in a presentation layer. blenderbim-230112 Dion Moult 2023-01-12 12:28:09 +11:00
  • d1a40d129f #2685 Recompile rules Thomas Krijnen 2023-01-11 13:38:12 +01:00
  • 791076df2d invalid escape sequence Thomas Krijnen 2023-01-11 13:20:44 +01:00
  • 608952a4dd #2685 WR test cases for local placement / indeterminate Thomas Krijnen 2023-01-11 12:50:30 +01:00
  • e64047c511 WR test cases for rigid op / typeof() of simple types Thomas Krijnen 2023-01-11 12:49:47 +01:00
  • fc3c6599c7 WR test cases for MLS / usedin() Thomas Krijnen 2023-01-11 12:48:53 +01:00
  • 2336f299f7 Implement typeof() on simple types Thomas Krijnen 2023-01-11 12:47:40 +01:00
  • 4a71ab9631 #2685 Don't raise issues on WR evaluating to indeterminate Thomas Krijnen 2023-01-11 12:47:13 +01:00
  • ac3c4cac89 Flange thickness is thickness at edge. Dion Moult 2023-01-09 11:19:56 +11:00
  • 2be1baab32 I-shape angle fix, fix incorrect flange thickness, and clean up ifdef. Dion Moult 2023-01-09 10:23:42 +11:00
  • 3e42fdb883 Minor fix Dion Moult 2023-01-08 22:28:58 +11:00
  • ed37d11002 Fix #2631. Add support for flange edge radius and flange slope for I-shapes. Dion Moult 2023-01-08 21:17:12 +11:00
  • 4cf896f564 Fix bug where half space booleans didn't show in the right spot due to units Dion Moult 2023-01-11 17:05:02 +11:00
  • 7e151799b0 Fix #2650. IFC selector only operates on visible objects. blenderbim-230111 Dion Moult 2023-01-11 15:20:58 +11:00
  • 597b2bb0a8 Fix #2596. Bug with IFC4X3 UI errors as docs couldn't be fetched. Dion Moult 2023-01-10 12:14:10 +11:00
  • ddc0f7e652 Theme improvements to IfcOpenShell docs Dion Moult 2023-01-10 11:43:13 +11:00
  • 4845d191f4 Minor fixes to docs blenderbim-230110 Jesusbill 2023-01-10 01:06:49 +01:00
  • da84cc5925 Add documentation for IfcPatch and all recipes Dion Moult 2023-01-10 10:18:13 +11:00
  • c8ba96cde8 Make syntax highlighting explicit in docs Dion Moult 2023-01-10 10:16:28 +11:00
  • 66e067d1ce Remove IfcMax from documentation as it's no longer relevant Dion Moult 2023-01-10 06:38:20 +11:00
  • 9d39760f6f Add IfcClash to docs Dion Moult 2023-01-10 06:35:21 +11:00